Time;durP1;ratioP1;P1;durP2;ratioP2;P2;SDS_P1;SDS_P2;PMS_P1;PMS_P2;Temp;Humidity;BMP_temperature;BMP_pressure;BME280_temperature;BME280_humidity;BME280_pressure;Samples;Min_cycle;Max_cycle;Signal;HPM_P1;HPM_P2
2022/11/26 00:00:19;;;;;;;0.50;0.50;;;;;;;5.59;89.15;97797.72;29394;254;64005;-57
2022/11/26 00:00:51;;;;;;;0.60;0.60;;;;;;;5.58;89.13;97803.31;29395;223;63005;-57
2022/11/26 00:01:22;;;;;;;0.40;0.40;;;;;;;5.58;89.29;97797.94;29395;299;63009;-57
2022/11/26 00:01:53;;;;;;;0.57;0.57;;;;;;;5.56;89.54;97797.38;29395;214;63005;-57
2022/11/26 00:02:30;;;;;;;0.50;0.50;;;;;;;5.55;89.42;97806.50;29395;252;63009;-57
2022/11/26 00:03:01;;;;;;;0.50;0.50;;;;;;;5.54;89.32;97803.00;29395;297;63007;-57
2022/11/26 00:03:32;;;;;;;0.60;0.60;;;;;;;5.56;89.26;97798.19;29395;210;63015;-57
2022/11/26 00:04:05;;;;;;;0.50;0.50;;;;;;;5.59;89.03;97799.56;29395;237;63005;-58
2022/11/26 00:04:36;;;;;;;0.50;0.50;;;;;;;5.58;88.80;97801.44;29395;218;63019;-57
2022/11/26 00:05:12;;;;;;;0.50;0.50;;;;;;;5.63;88.26;97801.56;29395;232;63004;-57
2022/11/26 00:05:47;;;;;;;0.50;0.50;;;;;;;5.64;87.94;97799.69;29394;222;64013;-57
2022/11/26 00:06:33;;;;;;;0.50;0.50;;;;;;;5.63;87.86;97803.44;29395;197;63004;-57
2022/11/26 00:07:05;;;;;;;0.47;0.47;;;;;;;5.62;87.89;97801.78;29395;267;63009;-57
2022/11/26 00:07:36;;;;;;;0.50;0.50;;;;;;;5.62;87.60;97804.50;29394;210;64008;-57
2022/11/26 00:08:34;;;;;;;0.50;0.50;;;;;;;5.61;87.82;97809.06;29395;373;63009;-67
2022/11/26 00:09:12;;;;;;;0.60;0.60;;;;;;;5.60;87.53;97803.91;29395;297;63005;-57
2022/11/26 00:09:44;;;;;;;0.50;0.50;;;;;;;5.59;87.98;97804.97;29394;230;64009;-57
2022/11/26 00:10:22;;;;;;;0.50;0.50;;;;;;;5.57;87.54;97805.19;29395;203;63005;-57
2022/11/26 00:10:53;;;;;;;0.50;0.50;;;;;;;5.57;88.22;97809.75;29395;256;63024;-57
2022/11/26 00:11:24;;;;;;;0.52;0.52;;;;;;;5.56;87.98;97805.44;29394;207;64009;-57
2022/11/26 00:11:56;;;;;;;0.50;0.50;;;;;;;5.62;87.68;97801.78;29395;214;63009;-58
2022/11/26 00:12:31;;;;;;;0.50;0.50;;;;;;;5.63;87.43;97804.25;29395;231;63004;-57
2022/11/26 00:13:09;;;;;;;0.50;0.50;;;;;;;5.63;87.45;97803.44;29395;206;63009;-57
2022/11/26 00:13:40;;;;;;;0.50;0.50;;;;;;;5.65;86.95;97810.22;29395;294;63004;-58
2022/11/26 00:14:14;;;;;;;0.57;0.57;;;;;;;5.69;86.94;97805.19;29395;287;63012;-57
2022/11/26 00:14:49;;;;;;;0.50;0.50;;;;;;;5.70;86.59;97804.13;29395;199;63004;-57
2022/11/26 00:15:29;;;;;;;0.50;0.50;;;;;;;5.69;86.78;97794.41;29395;241;63008;-58
2022/11/26 00:16:00;;;;;;;0.60;0.60;;;;;;;5.80;85.71;97809.72;29395;264;63007;-56
2022/11/26 00:16:32;;;;;;;0.60;0.60;;;;;;;5.83;85.25;97803.84;29394;209;64014;-57
2022/11/26 00:17:03;;;;;;;0.50;0.50;;;;;;;5.83;85.34;97803.84;29395;242;63005;-56
2022/11/26 00:17:34;;;;;;;0.50;0.50;;;;;;;5.82;85.48;97802.22;29395;203;63010;-58
2022/11/26 00:18:06;;;;;;;0.50;0.50;;;;;;;5.82;85.27;97807.59;29395;239;63005;-57
2022/11/26 00:18:37;;;;;;;0.50;0.50;;;;;;;5.83;85.39;97803.03;29394;368;64013;-56
2022/11/26 00:19:09;;;;;;;0.60;0.60;;;;;;;5.83;85.52;97808.41;29395;208;63005;-57
2022/11/26 00:19:42;;;;;;;0.50;0.50;;;;;;;5.80;85.46;97807.03;29395;198;63009;-56
2022/11/26 00:20:14;;;;;;;0.50;0.50;;;;;;;5.79;85.43;97813.47;29394;217;64009;-57
2022/11/26 00:20:49;;;;;;;0.50;0.50;;;;;;;5.80;85.38;97814.28;29395;244;63009;-58
2022/11/26 00:21:25;;;;;;;0.90;0.90;;;;;;;5.79;85.02;97807.25;29395;212;63004;-57
2022/11/26 00:21:56;;;;;;;0.50;0.50;;;;;;;5.78;85.24;97806.44;29395;300;63009;-58
2022/11/26 00:22:37;;;;;;;0.50;0.50;;;;;;;5.81;85.02;97803.28;29395;202;63008;-57
2022/11/26 00:23:21;;;;;;;0.60;0.60;;;;;;;5.83;85.27;97813.81;29417;239;63008;-57
2022/11/26 00:23:54;;;;;;;0.50;0.50;;;;;;;5.81;85.00;97811.34;29395;197;63005;-57
2022/11/26 00:24:27;;;;;;;0.50;0.50;;;;;;;5.81;85.06;97814.03;29395;213;63009;-57
2022/11/26 00:26:13;;;;;;;0.60;0.60;;;;;;;5.76;85.52;97823.91;88178;192;64004;-57
2022/11/26 00:26:44;;;;;;;0.52;0.52;;;;;;;5.78;85.71;97811.81;29394;276;64009;-58
2022/11/26 00:27:17;;;;;;;0.50;0.50;;;;;;;5.80;85.49;97815.09;29395;287;63005;-56
2022/11/26 00:27:51;;;;;;;0.50;0.50;;;;;;;5.83;85.52;97814.63;29395;224;63009;-57
2022/11/26 00:28:49;;;;;;;0.50;0.50;;;;;;;5.84;85.46;97815.44;29395;197;63005;-57
2022/11/26 00:29:21;;;;;;;0.50;0.50;;;;;;;5.79;85.38;97809.94;29394;360;64013;-57
2022/11/26 00:29:53;;;;;;;0.65;0.65;;;;;;;5.79;85.79;97823.41;29395;267;63004;-56
2022/11/26 00:30:26;;;;;;;0.57;0.57;;;;;;;5.77;85.93;97809.38;29395;197;63009;-67
2022/11/26 00:31:01;;;;;;;0.43;0.43;;;;;;;5.75;85.97;97812.31;29395;233;63004;-57
2022/11/26 00:31:32;;;;;;;0.60;0.60;;;;;;;5.76;86.65;97813.94;29395;206;63017;-62
2022/11/26 00:32:13;;;;;;;0.57;0.57;;;;;;;5.82;85.69;97810.28;29395;238;63004;-65
2022/11/26 00:32:48;;;;;;;0.57;0.57;;;;;;;5.87;85.38;97809.56;29395;202;63008;-56
2022/11/26 00:33:19;;;;;;;0.50;0.50;;;;;;;5.86;85.04;97816.03;29395;264;63010;-57
2022/11/26 00:33:51;;;;;;;0.50;0.50;;;;;;;5.86;85.42;97814.16;29394;217;64014;-57
2022/11/26 00:34:22;;;;;;;0.60;0.60;;;;;;;5.89;85.45;97824.44;29395;264;63005;-58
2022/11/26 00:34:54;;;;;;;0.50;0.50;;;;;;;5.88;85.47;97812.03;29395;203;63009;-57
2022/11/26 00:35:25;;;;;;;0.50;0.50;;;;;;;5.87;85.33;97817.66;29395;196;63005;-57
2022/11/26 00:36:21;;;;;;;0.50;0.50;;;;;;;5.86;86.00;97814.16;29395;212;63009;-66
2022/11/26 00:36:55;;;;;;;0.60;0.60;;;;;;;5.87;85.47;97820.34;29394;217;64009;-57
2022/11/26 00:37:38;;;;;;;0.50;0.50;;;;;;;5.85;85.64;97823.28;29395;226;63009;-57
2022/11/26 00:38:15;;;;;;;0.50;0.50;;;;;;;5.81;85.22;97822.13;29395;269;63004;-68
2022/11/26 00:38:52;;;;;;;0.50;0.50;;;;;;;5.80;85.92;97823.19;29395;226;63009;-57
2022/11/26 00:39:23;;;;;;;0.60;0.60;;;;;;;5.81;85.93;97826.69;29395;218;63004;-69
2022/11/26 00:39:56;;;;;;;0.40;0.40;;;;;;;5.80;86.18;97825.88;29395;240;63008;-57
2022/11/26 00:40:31;;;;;;;0.50;0.50;;;;;;;5.80;86.23;97831.25;29395;351;63004;-57
2022/11/26 00:41:03;;;;;;;0.60;0.60;;;;;;;5.84;86.45;97820.81;29395;207;63010;-57
2022/11/26 00:41:39;;;;;;;0.50;0.50;;;;;;;5.90;85.53;97826.06;29395;239;63005;-57
2022/11/26 00:42:11;;;;;;;0.50;0.50;;;;;;;5.91;85.39;97819.63;29394;349;64014;-57
2022/11/26 00:42:42;;;;;;;0.50;0.50;;;;;;;5.91;85.25;97826.91;29395;208;63009;-67
2022/11/26 00:43:16;;;;;;;0.60;0.60;;;;;;;5.90;85.35;97830.66;29394;205;64013;-57
2022/11/26 00:43:48;;;;;;;0.50;0.50;;;;;;;5.91;85.71;97827.72;29395;264;63005;-58
2022/11/26 00:44:22;;;;;;;0.50;0.50;;;;;;;5.97;85.36;97821.37;29395;196;63009;-57
2022/11/26 00:44:54;;;;;;;0.60;0.60;;;;;;;6.03;85.01;97819.59;29395;236;63004;-60
2022/11/26 00:45:30;;;;;;;0.50;0.50;;;;;;;6.09;84.53;97833.97;29395;237;63009;-56
2022/11/26 00:46:04;;;;;;;0.50;0.50;;;;;;;6.11;84.61;97834.56;29395;209;63004;-61
2022/11/26 00:46:36;;;;;;;0.50;0.50;;;;;;;6.13;84.63;97829.75;29394;202;64009;-57
2022/11/26 00:47:08;;;;;;;0.60;0.60;;;;;;;6.15;84.13;97833.84;29395;238;63004;-57
2022/11/26 00:47:40;;;;;;;0.50;0.50;;;;;;;6.14;83.99;97837.59;29394;208;64013;-59
2022/11/26 00:48:11;;;;;;;0.50;0.50;;;;;;;6.18;84.25;97840.62;29394;304;64009;-57
2022/11/26 00:48:43;;;;;;;0.50;0.50;;;;;;;6.17;84.10;97830.91;29394;197;64014;-66
2022/11/26 00:49:15;;;;;;;0.50;0.50;;;;;;;6.20;83.63;97831.25;29395;206;63005;-57
2022/11/26 00:49:47;;;;;;;0.57;0.57;;;;;;;6.22;83.66;97837.22;29395;229;63009;-57
2022/11/26 00:50:23;;;;;;;0.50;0.50;;;;;;;6.19;83.67;97839.56;29395;188;63005;-56
2022/11/26 00:50:56;;;;;;;0.50;0.50;;;;;;;6.16;84.04;97834.66;29395;219;63018;-58
2022/11/26 00:51:29;;;;;;;0.52;0.52;;;;;;;6.15;84.08;97835.72;29394;235;64009;-57
2022/11/26 00:52:02;;;;;;;0.50;0.50;;;;;;;6.14;84.08;97831.38;29394;287;64013;-57
2022/11/26 00:52:34;;;;;;;0.50;0.50;;;;;;;6.15;84.16;97835.72;29395;206;63004;-57
2022/11/26 00:53:07;;;;;;;0.50;0.50;;;;;;;6.16;84.30;97842.75;29395;229;63009;-57
2022/11/26 00:53:38;;;;;;;0.50;0.50;;;;;;;6.19;83.85;97837.69;29395;258;63004;-57
2022/11/26 00:54:13;;;;;;;0.65;0.65;;;;;;;6.23;84.07;97840.72;29395;256;63016;-58
2022/11/26 00:54:44;;;;;;;0.50;0.50;;;;;;;6.22;83.58;97839.09;29395;217;63012;-59
2022/11/26 00:55:43;;;;;;;0.50;0.50;;;;;;;6.18;84.21;97837.94;29394;298;64013;-57
2022/11/26 00:56:19;;;;;;;0.50;0.50;;;;;;;6.16;84.11;97837.34;29395;202;63005;-57
2022/11/26 00:56:51;;;;;;;0.43;0.43;;;;;;;6.13;84.38;97840.53;29395;244;63009;-56
2022/11/26 00:57:22;;;;;;;0.60;0.60;;;;;;;6.12;84.38;97838.91;29395;241;63005;-68
2022/11/26 00:57:55;;;;;;;0.60;0.60;;;;;;;6.09;84.89;97839.38;29395;197;63009;-56
2022/11/26 00:58:29;;;;;;;0.50;0.50;;;;;;;6.08;84.69;97848.50;29395;205;63005;-69
2022/11/26 00:59:00;;;;;;;0.50;0.50;;;;;;;6.05;85.03;97845.25;29394;232;64013;-58
2022/11/26 00:59:34;;;;;;;0.50;0.50;;;;;;;6.10;84.59;97846.41;29395;226;63004;-60
2022/11/26 01:00:16;;;;;;;0.60;0.60;;;;;;;6.14;84.73;97847.56;29395;243;63009;-61
2022/11/26 01:00:48;;;;;;;0.50;0.50;;;;;;;6.14;84.31;97847.56;29395;230;63004;-66
2022/11/26 01:01:22;;;;;;;0.50;0.50;;;;;;;6.15;84.70;97849.19;29395;247;63009;-57
2022/11/26 01:01:54;;;;;;;0.50;0.50;;;;;;;6.15;84.70;97849.19;29395;264;63004;-55
2022/11/26 01:02:26;;;;;;;0.50;0.50;;;;;;;6.11;85.03;97853.44;29395;224;63008;-65
2022/11/26 01:02:58;;;;;;;0.57;0.57;;;;;;;6.05;85.75;97849.81;29395;240;63004;-57
2022/11/26 01:03:29;;;;;;;0.50;0.50;;;;;;;6.01;85.50;97849.47;29394;215;64014;-57
2022/11/26 01:04:03;;;;;;;0.60;0.60;;;;;;;5.97;85.92;97853.69;29395;245;63005;-58
2022/11/26 01:04:35;;;;;;;0.50;0.50;;;;;;;5.95;86.40;97855.81;29395;216;63009;-66
2022/11/26 01:05:07;;;;;;;0.50;0.50;;;;;;;5.98;86.35;97849.94;29394;208;64009;-58
2022/11/26 01:05:38;;;;;;;0.50;0.50;;;;;;;6.04;85.87;97854.38;29395;245;63009;-57
2022/11/26 01:06:32;;;;;;;0.50;0.50;;;;;;;6.07;85.25;97849.56;29395;276;63008;-57
2022/11/26 01:07:03;;;;;;;0.50;0.50;;;;;;;6.04;85.64;97865.16;29395;199;63009;-57
2022/11/26 01:07:35;;;;;;;0.50;0.50;;;;;;;6.01;85.54;97854.03;29395;296;63004;-56
2022/11/26 01:08:32;;;;;;;0.50;0.50;;;;;;;5.98;86.13;97863.41;29395;211;63009;-56
2022/11/26 01:09:04;;;;;;;0.57;0.57;;;;;;;6.01;86.49;97849.47;29394;213;64008;-56
2022/11/26 01:09:36;;;;;;;0.60;0.60;;;;;;;6.03;86.24;97862.69;29395;213;63008;-57
2022/11/26 01:10:28;;;;;;;0.50;0.50;;;;;;;5.99;86.26;97856.16;29395;232;63005;-56
2022/11/26 01:11:02;;;;;;;0.60;0.60;;;;;;;5.95;86.54;97861.19;29394;314;64014;-59
2022/11/26 01:11:33;;;;;;;0.50;0.50;;;;;;;5.94;86.60;97864.94;29395;217;63005;-58
2022/11/26 01:12:11;;;;;;;0.50;0.50;;;;;;;6.01;86.49;97864.81;29395;199;63009;-57
2022/11/26 01:12:45;;;;;;;0.50;0.50;;;;;;;6.03;86.69;97870.78;29394;230;64009;-56
2022/11/26 01:13:22;;;;;;;0.50;0.50;;;;;;;6.03;86.58;97868.91;29395;216;63009;-58
2022/11/26 01:13:54;;;;;;;0.50;0.50;;;;;;;6.03;86.92;97863.53;29395;224;63005;-57
2022/11/26 01:14:26;;;;;;;0.50;0.50;;;;;;;6.00;86.70;97864.00;29394;197;64013;-57
2022/11/26 01:14:58;;;;;;;0.50;0.50;;;;;;;6.02;86.84;97866.47;29395;298;63004;-58
2022/11/26 01:15:29;;;;;;;0.50;0.50;;;;;;;6.01;86.97;97860.25;29395;238;63009;-56
2022/11/26 01:16:11;;;;;;;0.50;0.50;;;;;;;6.03;86.88;97871.59;29395;243;63004;-57
2022/11/26 01:16:47;;;;;;;0.60;0.60;;;;;;;6.01;87.12;97871.03;29395;196;63008;-59
2022/11/26 01:17:19;;;;;;;0.50;0.50;;;;;;;6.04;87.03;97873.25;29395;247;63004;-57
2022/11/26 01:17:52;;;;;;;0.50;0.50;;;;;;;5.99;87.61;97867.75;29395;247;63009;-57
2022/11/26 01:18:24;;;;;;;0.50;0.50;;;;;;;6.00;87.34;97871.25;29394;210;64009;-56
2022/11/26 01:19:01;;;;;;;0.50;0.50;;;;;;;5.98;87.52;97871.50;29395;243;63009;-56
2022/11/26 01:19:35;;;;;;;0.50;0.50;;;;;;;5.95;87.03;97880.06;29395;209;63005;-58
2022/11/26 01:20:22;;;;;;;0.50;0.50;;;;;;;5.98;87.89;97876.88;29395;222;63009;-58
2022/11/26 01:20:53;;;;;;;0.50;0.50;;;;;;;6.02;87.36;97875.34;29395;294;63005;-57
2022/11/26 01:21:28;;;;;;;0.50;0.50;;;;;;;6.02;87.75;97885.31;29395;215;63009;-57
2022/11/26 01:21:59;;;;;;;0.60;0.60;;;;;;;6.00;87.82;97868.56;29395;279;63013;-57
2022/11/26 01:22:33;;;;;;;0.52;0.52;;;;;;;5.93;88.66;97879.47;29395;198;63009;-57
2022/11/26 01:23:06;;;;;;;0.57;0.57;;;;;;;5.89;88.47;97878.31;29395;206;63004;-57
2022/11/26 01:23:38;;;;;;;0.60;0.60;;;;;;;5.86;88.68;97880.66;29394;366;64013;-57
2022/11/26 01:24:09;;;;;;;0.60;0.60;;;;;;;5.83;88.98;97881.97;29395;226;63004;-58
2022/11/26 01:24:40;;;;;;;0.52;0.52;;;;;;;5.84;89.26;97886.28;29395;272;63008;-57
2022/11/26 01:25:11;;;;;;;0.50;0.50;;;;;;;5.81;89.42;97881.38;29394;245;64009;-57
2022/11/26 01:25:44;;;;;;;0.40;0.40;;;;;;;5.78;90.22;97884.53;29395;207;63017;-58
2022/11/26 01:26:19;;;;;;;0.45;0.45;;;;;;;5.79;90.01;97891.56;29395;207;63005;-57
2022/11/26 01:28:03;;;;;;;0.50;0.50;;;;;;;5.79;89.80;97883.47;88174;206;64005;-57
2022/11/26 01:28:34;;;;;;;0.50;0.50;;;;;;;5.78;89.80;97886.41;29394;220;64009;-57
2022/11/26 01:29:05;;;;;;;0.50;0.50;;;;;;;5.77;89.90;97890.16;29395;220;63004;-57
2022/11/26 01:29:37;;;;;;;0.50;0.50;;;;;;;5.75;90.26;97887.72;29394;206;64013;-56
2022/11/26 01:30:31;;;;;;;0.50;0.50;;;;;;;5.74;89.84;97880.69;29395;231;63004;-69
2022/11/26 01:31:02;;;;;;;0.43;0.43;;;;;;;5.81;89.83;97881.38;29394;227;64014;-57
2022/11/26 01:31:34;;;;;;;0.50;0.50;;;;;;;5.83;89.48;97883.84;29395;202;63005;-57
2022/11/26 01:32:05;;;;;;;0.50;0.50;;;;;;;5.81;89.98;97888.63;29395;266;63009;-58
2022/11/26 01:32:38;;;;;;;0.50;0.50;;;;;;;5.81;89.95;97881.38;29395;251;63005;-71
2022/11/26 01:33:10;;;;;;;0.50;0.50;;;;;;;5.84;89.84;97890.84;29395;220;63008;-57
2022/11/26 01:33:41;;;;;;;0.50;0.50;;;;;;;5.85;89.89;97887.09;29394;262;64005;-58
2022/11/26 01:34:13;;;;;;;0.50;0.50;;;;;;;5.83;89.98;97890.03;29395;228;63009;-71
2022/11/26 01:34:46;;;;;;;0.60;0.60;;;;;;;5.82;90.16;97887.56;29395;236;63010;-71
2022/11/26 01:35:19;;;;;;;0.50;0.50;;;;;;;5.80;90.25;97890.50;29395;243;63009;-57
2022/11/26 01:35:50;;;;;;;0.50;0.50;;;;;;;5.78;90.49;97887.22;29395;265;63004;-57
2022/11/26 01:36:40;;;;;;;0.50;0.50;;;;;;;5.77;90.25;97890.97;29394;254;64013;-56
2022/11/26 01:37:13;;;;;;;0.50;0.50;;;;;;;5.77;90.69;97890.97;29395;249;63004;-71
2022/11/26 01:37:45;;;;;;;0.50;0.50;;;;;;;5.75;90.59;97887.72;29395;203;63008;-57
2022/11/26 01:38:19;;;;;;;0.50;0.50;;;;;;;5.75;90.70;97895.78;29395;297;63005;-56
2022/11/26 01:38:52;;;;;;;0.40;0.40;;;;;;;5.76;90.83;97891.22;29395;241;63015;-57
2022/11/26 01:39:23;;;;;;;0.50;0.50;;;;;;;5.76;90.84;97892.03;29395;197;63005;-58
2022/11/26 01:39:59;;;;;;;0.50;0.50;;;;;;;5.81;90.71;97886.75;29394;288;64009;-57
2022/11/26 01:41:14;;;;;;;0.50;0.50;;;;;;;5.83;90.40;97887.34;29394;202;64009;-57
2022/11/26 01:42:45;;;;;;;0.60;0.60;;;;;;;5.80;90.55;97890.50;29395;247;63009;-57
2022/11/26 01:44:29;;;;;;;0.50;0.50;;;;;;;5.85;90.55;97897.87;88174;202;63991;-57
2022/11/26 01:45:00;;;;;;;0.50;0.50;;;;;;;5.86;90.27;97904.91;29394;198;64009;-57
2022/11/26 01:45:32;;;;;;;0.50;0.50;;;;;;;5.86;90.50;97905.72;29394;223;64009;-57
2022/11/26 01:46:11;;;;;;;0.55;0.55;;;;;;;5.86;90.50;97905.72;29395;234;63009;-58
2022/11/26 01:46:42;;;;;;;0.52;0.52;;;;;;;5.86;90.45;97910.28;29395;249;63017;-57
2022/11/26 01:47:26;;;;;;;0.50;0.50;;;;;;;5.84;90.18;97901.62;29394;308;64013;-57
2022/11/26 01:47:57;;;;;;;0.50;0.50;;;;;;;5.84;90.96;97907.84;29395;198;63004;-57
2022/11/26 01:48:32;;;;;;;0.55;0.55;;;;;;;5.84;90.64;97907.84;29395;218;63009;-56
2022/11/26 01:49:25;;;;;;;0.50;0.50;;;;;;;5.85;90.66;97909.47;29394;209;64009;-59
2022/11/26 01:50:50;;;;;;;0.50;0.50;;;;;;;5.83;90.48;97908.88;29395;237;63008;-56
2022/11/26 01:51:26;;;;;;;0.50;0.50;;;;;;;5.83;90.84;97910.75;29394;215;64014;-57
2022/11/26 01:52:10;;;;;;;0.50;0.50;;;;;;;5.83;90.71;97911.59;29395;259;63005;-57
2022/11/26 01:52:42;;;;;;;0.50;0.50;;;;;;;5.82;90.97;97917.22;29395;243;63009;-58
2022/11/26 01:53:21;;;;;;;0.60;0.60;;;;;;;5.80;90.54;97919.31;29394;239;64009;-57
2022/11/26 01:53:58;;;;;;;0.50;0.50;;;;;;;5.78;90.53;97913.34;29395;265;63015;-58
2022/11/26 01:54:31;;;;;;;0.50;0.50;;;;;;;5.81;91.07;97915.56;29395;204;63005;-57
2022/11/26 01:55:03;;;;;;;0.50;0.50;;;;;;;5.80;90.67;97922.81;29395;276;63009;-58
2022/11/26 01:55:54;;;;;;;0.60;0.60;;;;;;;5.80;91.14;97920.13;29395;199;63004;-58
2022/11/26 01:56:55;;;;;;;0.60;0.60;;;;;;;5.87;90.80;97926.22;29416;256;64013;-58
2022/11/26 01:57:29;;;;;;;0.50;0.50;;;;;;;5.91;90.17;97919.31;29394;198;64008;-58
2022/11/26 01:58:01;;;;;;;0.60;0.60;;;;;;;5.90;90.13;97923.06;29395;198;63009;-57
2022/11/26 01:58:41;;;;;;;0.50;0.50;;;;;;;5.87;90.46;97923.53;29395;217;63005;-57
2022/11/26 01:59:25;;;;;;;0.60;0.60;;;;;;;5.86;90.28;97919.19;29395;292;63015;-57
2022/11/26 02:00:00;;;;;;;0.50;0.50;;;;;;;5.84;90.45;97924.00;29394;321;64009;-57
2022/11/26 02:00:31;;;;;;;0.50;0.50;;;;;;;5.81;90.86;97924.47;29394;190;64013;-58
2022/11/26 02:01:03;;;;;;;0.50;0.50;;;;;;;5.78;91.15;97926.81;29395;247;63005;-56
2022/11/26 02:01:35;;;;;;;0.40;0.40;;;;;;;5.74;91.28;97921.06;29395;206;63009;-57
2022/11/26 02:02:06;;;;;;;0.47;0.47;;;;;;;5.72;91.30;97921.31;29395;204;63005;-57
2022/11/26 02:02:39;;;;;;;0.47;0.47;;;;;;;5.72;91.44;97925.88;29394;233;64013;-58
2022/11/26 02:03:11;;;;;;;0.60;0.60;;;;;;;5.71;91.52;97914.28;29395;249;63004;-57
2022/11/26 02:04:17;;;;;;;0.40;0.40;;;;;;;5.72;91.41;97920.50;29395;207;63009;-58
2022/11/26 02:05:23;;;;;;;0.60;0.60;;;;;;;5.70;91.88;97915.34;29395;213;63004;-57
2022/11/26 02:06:02;;;;;;;0.50;0.50;;;;;;;5.71;91.74;97919.66;29395;202;63009;-57
2022/11/26 02:06:34;;;;;;;0.50;0.50;;;;;;;5.71;91.46;97918.84;29395;359;63005;-68
2022/11/26 02:07:05;;;;;;;0.50;0.50;;;;;;;5.69;92.05;97916.41;29395;211;63009;-57
2022/11/26 02:07:37;;;;;;;0.40;0.40;;;;;;;5.67;91.63;97923.06;29395;260;63005;-57
2022/11/26 02:08:11;;;;;;;0.50;0.50;;;;;;;5.65;92.10;97923.31;29394;222;64013;-57
2022/11/26 02:08:42;;;;;;;0.50;0.50;;;;;;;5.65;92.10;97926.00;29395;238;63010;-57
2022/11/26 02:09:14;;;;;;;0.50;0.50;;;;;;;5.64;92.14;97929.75;29395;199;63009;-57
2022/11/26 02:09:46;;;;;;;0.50;0.50;;;;;;;5.64;92.14;97923.53;29395;287;63004;-58
2022/11/26 02:10:17;;;;;;;0.50;0.50;;;;;;;5.63;92.47;97921.91;29395;240;63009;-58
2022/11/26 02:10:51;;;;;;;0.52;0.52;;;;;;;5.61;92.76;97929.41;29395;220;63016;-57
2022/11/26 02:11:24;;;;;;;0.50;0.50;;;;;;;5.61;92.62;97924.00;29395;217;63009;-57
2022/11/26 02:11:55;;;;;;;0.60;0.60;;;;;;;5.61;92.77;97918.63;29395;213;63004;-69
2022/11/26 02:12:28;;;;;;;0.60;0.60;;;;;;;5.64;92.89;97923.53;29395;214;63008;-57
2022/11/26 02:13:02;;;;;;;0.50;0.50;;;;;;;5.66;92.74;97924.94;29395;225;63004;-57
2022/11/26 02:13:33;;;;;;;0.50;0.50;;;;;;;5.65;92.79;97922.50;29394;197;64014;-57
2022/11/26 02:14:13;;;;;;;0.43;0.43;;;;;;;5.63;92.69;97927.28;29395;205;63005;-57
2022/11/26 02:14:44;;;;;;;0.60;0.60;;;;;;;5.63;92.71;97924.59;29395;210;63009;-57
2022/11/26 02:15:16;;;;;;;0.60;0.60;;;;;;;5.68;92.82;97930.09;29395;215;63009;-57
2022/11/26 02:16:18;;;;;;;0.50;0.50;;;;;;;5.69;91.84;97920.97;29395;248;63009;-56
2022/11/26 02:17:14;;;;;;;0.55;0.55;;;;;;;5.75;92.19;97929.97;29417;240;63004;-70
2022/11/26 02:17:57;;;;;;;0.50;0.50;;;;;;;5.72;92.02;97928.56;29395;204;63015;-57
2022/11/26 02:18:34;;;;;;;0.60;0.60;;;;;;;5.70;91.74;97936.06;29395;218;63004;-58
2022/11/26 02:19:41;;;;;;;0.60;0.60;;;;;;;5.65;92.11;97935.94;29394;201;64013;-57
2022/11/26 02:20:44;;;;;;;0.50;0.50;;;;;;;5.62;92.14;97931.03;29395;234;63009;-58
2022/11/26 02:21:25;;;;;;;0.60;0.60;;;;;;;5.58;92.89;97936.06;29395;227;63005;-57
2022/11/26 02:22:18;;;;;;;0.60;0.60;;;;;;;5.56;93.02;97926.59;29417;216;63009;-57
2022/11/26 02:23:32;;;;;;;0.60;0.60;;;;;;;5.59;93.25;97926.13;29395;355;63005;-57
2022/11/26 02:24:43;;;;;;;0.60;0.60;;;;;;;5.59;93.08;97931.50;29395;229;63009;-67
2022/11/26 02:25:38;;;;;;;0.60;0.60;;;;;;;5.57;92.93;97937.13;29394;197;64009;-57
2022/11/26 02:26:42;;;;;;;0.60;0.60;;;;;;;5.60;92.98;97938.53;29395;204;63017;-58
2022/11/26 02:27:58;;;;;;;0.50;0.50;;;;;;;5.62;92.55;97939.09;29395;206;63004;-57
2022/11/26 02:29:27;;;;;;;0.60;0.60;;;;;;;5.68;92.16;97943.56;29395;209;63009;-57
2022/11/26 02:30:11;;;;;;;0.50;0.50;;;;;;;5.63;92.00;97944.25;29395;298;63005;-58
2022/11/26 02:30:52;;;;;;;0.60;0.60;;;;;;;5.66;91.85;97942.97;29394;214;64013;-56
2022/11/26 02:31:53;;;;;;;0.50;0.50;;;;;;;5.62;92.39;97944.50;29395;196;63005;-56
2022/11/26 02:32:58;;;;;;;0.50;0.50;;;;;;;5.59;92.25;97943.09;29394;227;64009;-69
2022/11/26 02:33:53;;;;;;;0.50;0.50;;;;;;;5.60;92.46;97938.53;29395;241;63009;-56
2022/11/26 02:34:58;;;;;;;0.50;0.50;;;;;;;5.61;92.13;97945.53;29395;227;63004;-58
2022/11/26 02:35:59;;;;;;;0.60;0.60;;;;;;;5.58;92.36;97941.44;29395;296;63009;-57
2022/11/26 02:36:48;;;;;;;0.50;0.50;;;;;;;5.61;92.33;97948.25;29417;202;63005;-57
2022/11/26 02:37:30;;;;;;;0.50;0.50;;;;;;;5.62;91.99;97947.19;29373;220;63009;-57
2022/11/26 02:38:09;;;;;;;0.57;0.57;;;;;;;5.60;92.06;97943.91;29394;212;64009;-56
2022/11/26 02:38:40;;;;;;;0.60;0.60;;;;;;;5.59;92.16;97953.03;29395;237;63009;-70
2022/11/26 02:39:19;;;;;;;0.50;0.50;;;;;;;5.57;92.48;97953.28;29395;202;63004;-58
2022/11/26 02:39:51;;;;;;;0.50;0.50;;;;;;;5.55;92.08;97950.00;29395;238;63022;-58
2022/11/26 02:40:24;;;;;;;0.60;0.60;;;;;;;5.53;92.66;97954.00;29395;210;63004;-57
2022/11/26 02:40:55;;;;;;;0.50;0.50;;;;;;;5.53;92.39;97954.00;29395;267;63009;-57
2022/11/26 02:41:32;;;;;;;0.52;0.52;;;;;;;5.51;93.05;97962.31;29395;197;63004;-57
2022/11/26 02:42:28;;;;;;;0.60;0.60;;;;;;;5.48;93.16;97952.00;29394;202;64013;-57
2022/11/26 02:42:59;;;;;;;0.55;0.55;;;;;;;5.50;93.28;97962.53;29394;202;64009;-56
2022/11/26 02:43:33;;;;;;;0.50;0.50;;;;;;;5.49;93.25;97959.03;29395;197;63009;-57
2022/11/26 02:44:07;;;;;;;0.50;0.50;;;;;;;5.50;93.49;97965.25;29395;286;63005;-57
2022/11/26 02:44:43;;;;;;;0.50;0.50;;;;;;;5.48;93.36;97964.66;29395;219;63009;-69
2022/11/26 02:45:24;;;;;;;0.55;0.55;;;;;;;5.48;93.80;97961.97;29396;251;63005;-70
2022/11/26 02:46:00;;;;;;;0.60;0.60;;;;;;;5.47;93.77;97971.09;29417;259;63009;-57
2022/11/26 02:46:31;;;;;;;0.55;0.55;;;;;;;5.45;93.58;97967.81;29395;202;63005;-57
2022/11/26 02:47:12;;;;;;;0.50;0.50;;;;;;;5.42;94.37;97965.59;29395;209;63009;-57
2022/11/26 02:47:48;;;;;;;0.55;0.55;;;;;;;5.40;94.51;97971.19;29394;246;64009;-57
2022/11/26 02:48:33;;;;;;;0.50;0.50;;;;;;;5.38;94.30;97968.72;29395;313;63009;-58
2022/11/26 02:49:05;;;;;;;0.60;0.60;;;;;;;5.36;94.68;97970.03;29395;242;63004;-57
2022/11/26 02:49:40;;;;;;;0.55;0.55;;;;;;;5.35;94.70;97966.50;29395;223;63008;-69
2022/11/26 02:50:25;;;;;;;0.57;0.57;;;;;;;5.33;95.42;97968.59;29395;221;63005;-57
2022/11/26 02:51:14;;;;;;;0.50;0.50;;;;;;;5.30;94.84;97963.69;29395;307;63009;-57
2022/11/26 02:51:53;;;;;;;0.60;0.60;;;;;;;5.31;95.11;97973.41;29394;264;64009;-57
2022/11/26 02:52:27;;;;;;;0.55;0.55;;;;;;;5.31;95.44;97973.41;29395;196;63009;-69
2022/11/26 02:53:00;;;;;;;0.60;0.60;;;;;;;5.29;95.04;97970.12;29395;196;63005;-57
2022/11/26 02:53:33;;;;;;;0.50;0.50;;;;;;;5.28;95.14;97971.19;29395;292;63015;-57
2022/11/26 02:54:07;;;;;;;0.50;0.50;;;;;;;5.28;95.50;97976.56;29395;242;63005;-58
2022/11/26 02:54:41;;;;;;;0.60;0.60;;;;;;;5.29;95.22;97970.12;29395;251;63017;-57
2022/11/26 02:55:17;;;;;;;0.60;0.60;;;;;;;5.29;95.54;97969.31;29395;213;63009;-57
2022/11/26 02:55:52;;;;;;;0.50;0.50;;;;;;;5.27;95.57;97977.59;29395;203;63009;-57
2022/11/26 02:56:26;;;;;;;0.60;0.60;;;;;;;5.27;95.64;97976.78;29394;196;64009;-56
2022/11/26 02:57:01;;;;;;;0.50;0.50;;;;;;;5.27;95.29;97972.22;29395;212;63008;-57
2022/11/26 02:57:37;;;;;;;0.50;0.50;;;;;;;5.27;95.76;97980.31;29395;209;63011;-57
2022/11/26 02:58:08;;;;;;;0.60;0.60;;;;;;;5.28;95.61;97984.62;29395;214;63009;-57
2022/11/26 02:58:43;;;;;;;0.50;0.50;;;;;;;5.26;95.58;97981.34;29395;273;63005;-57
2022/11/26 02:59:15;;;;;;;0.50;0.50;;;;;;;5.24;95.39;97975.38;29395;214;63009;-58
2022/11/26 02:59:47;;;;;;;0.60;0.60;;;;;;;5.23;95.85;97981.00;29395;229;63005;-57
2022/11/26 03:00:20;;;;;;;0.60;0.60;;;;;;;5.23;95.56;97986.38;29395;292;63018;-57
2022/11/26 03:00:53;;;;;;;0.57;0.57;;;;;;;5.22;95.93;97980.16;29395;285;63005;-56
2022/11/26 03:01:51;;;;;;;3.15;3.05;;;;;;;5.23;95.96;97989.06;29394;298;64013;-57
2022/11/26 03:02:33;;;;;;;0.50;0.50;;;;;;;5.22;96.13;97984.72;29395;218;63004;-56
2022/11/26 03:03:22;;;;;;;0.50;0.50;;;;;;;5.21;96.07;97983.91;29395;208;63009;-57
2022/11/26 03:03:57;;;;;;;0.50;0.50;;;;;;;5.22;96.36;97984.72;29395;212;63004;-57
2022/11/26 03:04:37;;;;;;;0.50;0.50;;;;;;;5.21;95.99;97994.69;29395;202;63008;-57
2022/11/26 03:05:10;;;;;;;0.50;0.50;;;;;;;5.21;96.41;97997.37;29395;231;63005;-58